ENCN

Kristiansand Airport

Kjevik, Norway
METAR ENCN 150050Z AUTO VRB02KT 9999 BKN059/// 11/11 Q1010
Observed Flight Rules
Aug-15 @ 00:50 UTC (15 minutes ago) Visual Flight Rules
Wind Visibility Clouds
Variable at 2 knots 10,000+ meters
  • Broken at 5,900' AGL
Temperatures Readings
Current 11°C / 52°F
Dewpoint 11°C / 52°F
Humidity 100%
Altimeter 29.82" Hg
Pressure 1010 hPa
Elevation 17
METAR ENCN 150050Z AUTO VRB02KT 9999 BKN059/// 11/11 Q1010
Observed Flight Rules
Aug-15 @ 00:50 UTC
(15 minutes ago)
VFR
Wind Visibility
Variable at 2 knots 10,000+ meters
Clouds
  • Broken at 5,900' AGL
Temperature Dewpoint
11°C / 52°F 11°C / 52°F
Humidity Altimeter Pressure
100% 29.82" Hg 1010 hPa